Service Notice

This observation station is currently unavailable due to a loss of power in the area.

Work to restore the service will be undertaken as soon as it is safe to do so.

The Bureau's national resources allow our meteorologists to produce accurate and timely forecasts and warnings in areas without observations, including for the locations around this station site. Search for forcast by town, city, post code or lat/lon here or find the location on the MetEye map.

Latest Weather Observations for Cabramurra

IDN60801

Issued at 7:22 pm EDT Friday 23 October 2020 (issued every 10 minutes, with the page automatically refreshed every 10 minutes)

About weather observations | Map of weather stations | Latest weather observations for NSW | Other Formats
Station Details ID: 072161 Name: CABRAMURRA SMHEA AWS Lat: -35.94 Lon: 148.38 Height: 1482.4 m
Data from the previous 72 hours. | See also: Recent months at Cabramurra
Date/Time
EDT
Temp
°C
App
Temp
°C
Dew
Point
°C
Rel
Hum
%
Delta-T
°C
Wind Press
QNH
hPa
Press
MSL
hPa
Rain since
9am
mm
Dir  Spd
km/h
Gust
km/h
Spd
kts
Gust
kts
23/07:00pm 14.0 10.8 10.0 77 2.2 NNE 17 24 9 13 - - 2.4
23/06:30pm 13.2 10.0 9.8 80 1.9 ENE 17 22 9 12 - - 2.2
23/06:00pm 13.1 10.6 9.7 80 1.9 E 13 15 7 8 - - 2.2
23/05:30pm 12.9 10.8 9.9 82 1.7 SSE 11 17 6 9 - - 2.2
23/05:00pm 13.1 12.1 10.3 83 1.6 NNW 6 9 3 5 - - 2.2
23/04:30pm 12.8 11.0 9.3 79 1.9 NW 9 13 5 7 - - 2.2
23/04:00pm 12.4 8.8 10.0 85 1.3 NW 19 30 10 16 - - 2.2
23/03:30pm 13.0 11.5 9.3 78 2.0 NW 7 15 4 8 - - 1.2
23/03:00pm 13.6 11.6 11.5 87 1.2 NNW 13 20 7 11 - - 1.0
23/02:30pm 12.7 12.1 12.2 97 0.3 N 7 13 4 7 - - 0.4
23/02:00pm 14.5 8.4 9.9 74 2.6 NNW 32 50 17 27 - - 0.0
23/01:32pm 14.8 9.7 10.6 76 2.4 N 28 46 15 25 - - 0.0
23/01:30pm 14.8 10.5 10.8 77 2.3 NNW 24 43 13 23 - - 0.0
23/01:00pm 14.0 10.3 11.5 85 1.4 N 22 39 12 21 - - 0.0
23/12:30pm 13.1 10.3 11.2 88 1.1 NNW 17 20 9 11 - - 0.0
23/12:00pm 13.3 8.7 11.0 86 1.3 NNW 26 35 14 19 - - 0.0
23/11:30am 13.9 9.8 11.4 85 1.4 NNW 24 35 13 19 - - 0.0
23/11:00am 13.3 6.9 10.8 85 1.4 N 35 52 19 28 - - 0.0
23/10:47am 13.0 7.9 10.5 85 1.4 N 28 46 15 25 - - 0.0
23/10:30am 12.8 8.2 10.9 88 1.1 N 26 35 14 19 - - 0.0
23/10:00am 12.3 9.6 10.5 89 1.0 N 15 20 8 11 - - 0.0
23/09:30am 12.0 9.0 10.6 91 0.8 NNW 17 28 9 15 - - 0.0
23/09:00am 12.2 8.3 10.8 91 0.8 N 22 32 12 17 - - 9.2
23/08:30am 11.5 7.9 10.7 95 0.4 N 20 26 11 14 - - 9.2
23/08:00am 9.6 7.4 8.0 90 0.8 NE 9 11 5 6 - - 9.2
23/07:30am 8.7 5.5 8.6 99 0.1 WSW 15 22 8 12 - - 7.0
23/07:00am 11.2 7.5 8.1 81 1.6 NNW 17 24 9 13 - - 0.0
23/06:30am 11.5 6.9 8.2 80 1.8 N 22 33 12 18 - - 0.0
23/06:00am 11.4 7.8 6.7 73 2.4 N 15 20 8 11 - - 0.0
23/05:30am 11.8 7.8 6.5 70 2.7 N 17 26 9 14 - - 0.0
23/05:00am 12.4 8.0 7.3 71 2.7 NNW 20 30 11 16 - - 0.0
23/04:30am 11.6 7.9 6.1 69 2.8 N 15 20 8 11 - - 0.0
23/04:00am 11.9 7.7 5.8 66 3.1 N 17 24 9 13 - - 0.0
23/03:30am 11.5 7.6 5.2 65 3.2 N 15 19 8 10 - - 0.0
23/03:00am 11.7 7.1 3.5 57 4.0 N 17 20 9 11 - - 0.0
23/02:30am 11.7 7.3 2.5 53 4.4 N 15 20 8 11 - - 0.0
23/02:00am 11.3 7.1 1.8 52 4.4 NNE 13 20 7 11 - - 0.0
23/01:30am 11.8 7.7 2.0 51 4.6 N 13 17 7 9 - - 0.0
23/01:00am 11.6 7.5 2.1 52 4.5 N 13 15 7 8 - - 0.0
23/12:30am 11.7 7.9 1.6 50 4.7 N 11 13 6 7 - - 0.0
23/12:00am 11.9 8.4 1.5 49 4.8 N 9 11 5 6 - - 0.0
 
Date/Time
EDT
Temp
°C
App
Temp
°C
Dew
Point
°C
Rel
Hum
%
Delta-T
°C
Wind Press
QNH
hPa
Press
MSL
hPa
Rain since
9am
mm
Dir  Spd
km/h
Gust
km/h
Spd
kts
Gust
kts
22/11:30pm 11.0 9.3 2.1 54 4.2 CALM 0 0 0 0 - - 0.0
22/11:00pm 11.3 8.5 2.3 54 4.2 NW 6 6 3 3 - - 0.0
22/10:30pm 11.6 9.2 2.4 53 4.3 NNW 4 7 2 4 - - 0.0
22/10:00pm 11.9 9.2 2.4 52 4.5 NW 6 7 3 4 - - 0.0
22/09:30pm 11.8 8.8 1.7 50 4.7 NW 7 9 4 5 - - 0.0
22/09:00pm 11.6 8.5 1.5 50 4.7 WNW 7 9 4 5 - - 0.0
22/08:30pm 11.7 8.6 1.6 50 4.7 WNW 7 9 4 5 - - 0.0
22/08:00pm 12.4 10.0 2.0 49 4.9 NNW 4 6 2 3 - - 0.0
22/07:30pm 12.3 9.6 2.5 51 4.7 W 6 9 3 5 - - 0.0
22/07:00pm 13.7 9.6 2.3 46 5.5 W 13 17 7 9 - - 0.0
22/06:30pm 14.6 10.5 4.3 50 5.2 W 15 20 8 11 - - 0.0
22/06:00pm 15.1 11.2 3.6 46 5.7 W 13 20 7 11 - - 0.0
22/05:30pm 14.6 10.2 4.6 51 5.0 W 17 26 9 14 - - 0.0
22/05:00pm 15.6 11.8 5.8 52 5.1 W 15 20 8 11 - - 0.0
22/04:30pm 15.6 11.3 5.2 50 5.4 W 17 28 9 15 - - 0.0
22/04:00pm 15.6 11.0 5.5 51 5.2 W 19 26 10 14 - - 0.0
22/03:30pm 15.7 11.1 5.6 51 5.2 W 19 30 10 16 - - 0.0
22/03:00pm 14.6 10.6 5.1 53 4.8 WNW 15 30 8 16 - - 0.0
22/02:30pm 14.1 9.2 4.9 54 4.7 W 20 30 11 16 - - 0.0
22/02:00pm 14.8 10.5 5.3 53 4.9 W 17 24 9 13 - - 0.0
22/01:30pm 14.5 10.5 4.8 52 4.9 WNW 15 24 8 13 - - 0.0
22/01:00pm 15.9 12.3 6.6 54 4.9 WNW 15 26 8 14 - - 0.0
22/12:30pm 14.5 11.2 4.8 52 4.9 W 11 19 6 10 - - 0.0
22/12:00pm 13.8 9.7 4.1 52 4.8 NNW 15 24 8 13 - - 0.0
22/11:30am 13.4 8.5 4.3 54 4.5 N 19 26 10 14 - - 0.0
22/11:00am 13.3 7.6 3.1 50 4.9 N 22 33 12 18 - - 0.0
22/10:30am 12.4 8.4 3.1 53 4.5 NNW 13 22 7 12 - - 0.0
22/10:00am 12.7 9.1 5.1 60 3.8 N 13 20 7 11 - - 0.0
22/09:30am 11.6 7.2 2.9 55 4.1 NNW 15 20 8 11 - - 0.0
22/09:00am 11.5 7.8 2.5 54 4.3 N 11 15 6 8 - - 0.0
22/08:30am 10.8 7.0 1.6 53 4.2 NNW 11 13 6 7 - - 0.0
22/08:00am 10.3 6.5 1.7 55 4.0 NNW 11 15 6 8 - - 0.0
22/07:30am 9.6 5.4 1.8 58 3.6 NW 13 17 7 9 - - 0.0
22/07:00am 9.3 4.9 2.6 63 3.1 NNW 15 20 8 11 - - 0.0
22/06:30am 8.9 5.4 3.5 69 2.6 NW 11 15 6 8 - - 0.0
22/06:00am 9.0 5.7 4.4 73 2.2 NNW 11 13 6 7 - - 0.0
22/05:30am 8.9 5.5 4.1 72 2.3 N 11 13 6 7 - - 0.0
22/05:00am 9.0 5.7 4.4 73 2.2 N 11 15 6 8 - - 0.0
22/04:30am 9.2 5.5 4.2 71 2.4 N 13 17 7 9 - - 0.0
22/04:00am 9.3 4.9 4.7 73 2.2 N 17 20 9 11 - - 0.0
22/03:30am 9.3 5.7 5.1 75 2.1 N 13 17 7 9 - - 0.0
22/03:00am 9.5 5.5 4.9 73 2.3 N 15 20 8 11 - - 0.0
22/02:30am 9.5 5.8 4.7 72 2.3 N 13 17 7 9 - - 0.0
22/02:00am 9.7 6.0 4.5 70 2.5 N 13 15 7 8 - - 0.0
22/01:30am 9.9 6.2 4.3 68 2.7 NNE 13 17 7 9 - - 0.0
22/01:00am 9.6 6.3 4.4 70 2.5 NNE 11 13 6 7 - - 0.0
22/12:30am 9.7 6.4 4.5 70 2.5 NE 11 15 6 8 - - 0.0
22/12:00am 9.3 6.1 4.9 74 2.2 ENE 11 15 6 8 - - 0.0
 
Date/Time
EDT
Temp
°C
App
Temp
°C
Dew
Point
°C
Rel
Hum
%
Delta-T
°C
Wind Press
QNH
hPa
Press
MSL
hPa
Rain since
9am
mm
Dir  Spd
km/h
Gust
km/h
Spd
kts
Gust
kts
21/11:30pm 9.3 7.0 4.9 74 2.2 ESE 6 7 3 4 - - 0.0
21/11:00pm 9.4 6.9 5.0 74 2.2 SE 7 9 4 5 - - 0.0
21/10:30pm 9.4 6.7 5.4 76 2.0 W 9 13 5 7 - - 0.0
21/10:00pm 10.0 7.1 4.8 70 2.6 WNW 9 15 5 8 - - 0.0
21/09:30pm 9.9 8.0 4.7 70 2.5 NW 4 7 2 4 - - 0.0
21/09:00pm 10.0 7.3 3.7 65 3.0 WNW 7 9 4 5 - - 0.0
21/08:30pm 10.1 8.7 3.8 65 3.0 CALM 0 0 0 0 - - 0.0
21/08:00pm 10.8 7.7 3.8 62 3.4 W 9 11 5 6 - - 0.0
21/07:30pm 11.5 8.5 4.3 61 3.5 W 9 17 5 9 - - 0.0
21/07:00pm 12.8 8.8 5.0 59 3.9 W 15 26 8 14 - - 0.0
21/06:30pm 13.1 9.2 5.3 59 4.0 WNW 15 22 8 12 - - 0.0
21/06:00pm 13.5 8.9 6.4 62 3.7 W 20 28 11 15 - - 0.0
21/05:30pm 13.1 9.5 6.7 65 3.3 WNW 15 26 8 14 - - 0.0
21/05:00pm 13.2 9.3 7.2 67 3.2 W 17 24 9 13 - - 0.0
21/04:30pm 12.7 9.1 8.2 74 2.4 W 17 26 9 14 - - 0.0
21/04:00pm 12.2 7.7 6.9 70 2.8 WNW 20 33 11 18 - - 0.0
21/03:30pm 12.9 7.6 6.9 67 3.1 W 24 43 13 23 - - 0.0
21/03:00pm 14.5 9.0 6.1 57 4.4 WNW 24 43 13 23 - - 0.0
21/02:30pm 15.1 9.8 6.7 57 4.4 WNW 24 41 13 22 - - 0.0
21/02:00pm 13.7 9.1 5.8 59 4.1 WNW 19 28 10 15 - - 0.0
21/01:30pm 14.1 10.5 6.7 61 3.9 WNW 15 26 8 14 - - 0.0
21/01:00pm 13.4 9.4 6.7 64 3.5 WNW 17 26 9 14 - - 0.0
21/12:30pm 12.8 9.5 6.2 64 3.4 NW 13 22 7 12 - - 0.0
21/12:00pm 13.0 9.0 6.6 65 3.3 NW 17 28 9 15 - - 0.0
21/11:30am 12.2 8.5 6.3 67 3.0 NW 15 20 8 11 - - 0.0
21/11:00am 12.3 8.3 6.8 69 2.9 NNW 17 28 9 15 - - 0.0
21/10:30am 11.3 7.3 6.6 73 2.4 NNW 17 24 9 13 - - 0.0
21/10:00am 11.1 6.5 6.6 74 2.3 NNW 20 28 11 15 - - 0.0
21/09:30am 10.6 5.6 6.4 75 2.1 N 22 28 12 15 - - 0.0
21/09:00am 10.0 4.9 5.8 75 2.1 N 22 33 12 18 - - 0.0
21/08:30am 9.9 5.1 5.5 74 2.2 NNW 20 30 11 16 - - 0.0
21/08:00am 9.6 4.9 5.0 73 2.3 NNW 19 28 10 15 - - 0.0
21/07:30am 9.0 4.6 4.6 74 2.1 NNW 17 20 9 11 - - 0.0
21/07:00am 8.5 4.4 4.3 75 2.0 NNW 15 19 8 10 - - 0.0
21/06:30am 8.3 4.1 3.9 74 2.1 NNW 15 17 8 9 - - 0.0
21/06:00am 8.1 3.9 3.9 75 2.0 NNW 15 17 8 9 - - 0.0
21/05:30am 8.2 4.0 3.9 74 2.0 NNW 15 17 8 9 - - 0.0
21/05:00am 8.5 4.3 3.8 72 2.2 NW 15 17 8 9 - - 0.0
21/04:30am 8.3 4.1 3.8 73 2.1 NW 15 19 8 10 - - 0.0
21/04:00am 8.0 4.2 3.7 74 2.0 NNW 13 17 7 9 - - 0.0
21/03:30am 8.2 4.3 3.5 72 2.2 NW 13 15 7 8 - - 0.0
21/03:00am 8.3 4.4 3.4 71 2.3 NW 13 17 7 9 - - 0.0
21/02:30am 8.6 4.3 3.2 69 2.5 NW 15 17 8 9 - - 0.0
21/02:00am 8.7 4.0 3.3 69 2.5 NW 17 20 9 11 - - 0.0
21/01:30am 8.8 4.1 3.2 68 2.6 NW 17 20 9 11 - - 0.0
21/01:00am 8.7 4.4 3.5 70 2.5 NNW 15 17 8 9 - - 0.0
21/12:30am 8.8 5.0 4.0 72 2.3 N 13 17 7 9 - - 0.0
21/12:00am 8.7 5.4 4.5 75 2.0 N 11 13 6 7 - - 0.0
 
Date/Time
EDT
Temp
°C
App
Temp
°C
Dew
Point
°C
Rel
Hum
%
Delta-T
°C
Wind Press
QNH
hPa
Press
MSL
hPa
Rain since
9am
mm
Dir  Spd
km/h
Gust
km/h
Spd
kts
Gust
kts
20/11:30pm 8.1 5.7 4.5 78 1.7 N 6 7 3 4 - - 0.0
20/11:00pm 8.6 6.1 5.0 78 1.8 N 7 9 4 5 - - 0.0
20/10:30pm 8.8 6.5 5.7 81 1.5 NNW 7 9 4 5 - - 0.0
20/10:00pm 8.9 8.0 6.2 83 1.4 CALM 0 6 0 3 - - 0.0
20/09:30pm 8.9 6.8 5.8 81 1.5 W 6 9 3 5 - - 0.0
20/09:00pm 9.0 6.7 5.9 81 1.5 WNW 7 11 4 6 - - 0.0
20/08:30pm 9.2 7.1 5.9 80 1.6 NW 6 9 3 5 - - 0.0
20/08:00pm 9.5 6.8 5.7 77 1.9 WNW 9 13 5 7 - - 0.0
20/07:30pm 10.1 7.4 5.7 74 2.2 WNW 9 13 5 7 - - 0.0

Other formats

Comma delimited format used in spreadsheet applications
http://www.bom.gov.au/fwo/IDN60801/IDN60801.95916.axf

JavaScript Object Notation format (JSON) in row-major order
http://www.bom.gov.au/fwo/IDN60801/IDN60801.95916.json

Data quality

Most of these data are generated automatically and are frequently updated. Quality checks on data are not normally performed. It is possible for incorrect values to appear. Refer to information at About Latest Weather Observations and please check the disclaimer before using these data.